Time;durP1;ratioP1;P1;durP2;ratioP2;P2;SDS_P1;SDS_P2;PMS_P1;PMS_P2;Temp;Humidity;BMP_temperature;BMP_pressure;BME280_temperature;BME280_humidity;BME280_pressure;Samples;Min_cycle;Max_cycle;Signal;HPM_P1;HPM_P2
2022/01/06 00:01:17;;;;;;;5.47;1.20;;;;;;;6.30;67.57;100589.44;4923413;28;116969;-50
2022/01/06 00:03:43;;;;;;;2.97;1.00;;;;;;;6.29;67.57;100590.66;4923182;28;118122;-51
2022/01/06 00:06:10;;;;;;;1.70;0.80;;;;;;;6.28;67.48;100592.63;4923729;28;97174;-51
2022/01/06 00:08:37;;;;;;;2.73;0.93;;;;;;;6.30;67.65;100605.81;4926225;28;98015;-51
2022/01/06 00:11:02;;;;;;;1.33;0.80;;;;;;;6.28;67.47;100606.28;4926079;28;97839;-51
2022/01/06 00:16:38;;;;;;;5.53;0.80;;;;;;;6.25;67.41;100626.34;4926413;28;97197;-48
2022/01/06 00:24:17;;;;;;;1.43;0.70;;;;;;;6.05;67.63;100640.53;4923146;28;97207;-48
2022/01/06 00:26:43;;;;;;;7.53;1.27;;;;;;;6.04;67.56;100649.94;4926095;28;96800;-48
2022/01/06 00:29:08;;;;;;;3.03;0.60;;;;;;;6.03;67.42;100659.34;4922292;28;97442;-50
2022/01/06 00:31:34;;;;;;;2.13;0.70;;;;;;;6.04;67.51;100671.03;4927692;28;97265;-48
2022/01/06 00:34:00;;;;;;;1.77;0.80;;;;;;;6.03;67.45;100685.91;4925274;28;96746;-49
2022/01/06 00:36:26;;;;;;;1.27;0.60;;;;;;;6.05;67.44;100686.19;4922596;28;97136;-48
2022/01/06 00:38:51;;;;;;;1.87;0.90;;;;;;;6.08;67.11;100690.75;4924604;28;97486;-49
2022/01/06 00:41:17;;;;;;;0.97;0.80;;;;;;;6.10;67.06;100696.50;4921464;28;97432;-48
2022/01/06 00:43:42;;;;;;;1.33;0.60;;;;;;;6.10;66.77;100704.69;4925600;28;97117;-48
2022/01/06 00:46:07;;;;;;;4.67;0.70;;;;;;;6.09;66.95;100710.63;4920525;28;97771;-52
2022/01/06 00:48:33;;;;;;;2.07;0.70;;;;;;;6.07;66.91;100707.59;4937433;28;124438;-51
2022/01/06 00:50:58;;;;;;;0.70;0.50;;;;;;;6.05;67.01;100717.00;4924019;28;122719;-51
2022/01/06 00:53:23;;;;;;;3.07;0.70;;;;;;;6.05;66.82;100738.84;4923414;28;117007;-51
2022/01/06 00:55:48;;;;;;;1.70;0.70;;;;;;;6.02;66.83;100733.56;4921998;28;98245;-50
2022/01/06 00:58:15;;;;;;;1.30;0.60;;;;;;;5.98;66.84;100733.69;4923901;28;107561;-50
2022/01/06 01:00:41;;;;;;;0.67;0.50;;;;;;;5.96;66.72;100736.13;4922636;28;96802;-51
2022/01/06 01:03:20;;;;;;;2.60;0.57;;;;;;;5.95;66.85;100744.78;4924198;28;96657;-50
2022/01/06 01:05:49;;;;;;;0.67;0.50;;;;;;;5.89;66.60;100754.81;4918404;28;97530;-51
2022/01/06 01:08:14;;;;;;;1.10;0.63;;;;;;;5.85;66.54;100765.88;4923661;28;96917;-50
2022/01/06 01:10:41;;;;;;;1.70;0.50;;;;;;;5.79;66.86;100764.94;4924182;28;97301;-51
2022/01/06 01:13:10;;;;;;;2.77;0.80;;;;;;;5.78;66.39;100766.16;4923290;28;96898;-51
2022/01/06 01:15:43;;;;;;;2.00;0.60;;;;;;;5.71;66.65;100769.19;4927560;28;96950;-50
2022/01/06 01:18:10;;;;;;;1.07;0.60;;;;;;;5.70;66.47;100783.31;4923115;28;97470;-51
2022/01/06 01:20:35;;;;;;;2.60;0.83;;;;;;;5.64;66.42;100776.91;4923105;28;97082;-50
2022/01/06 01:23:00;;;;;;;1.13;0.80;;;;;;;5.57;66.24;100777.25;4925349;28;97029;-49
2022/01/06 01:25:26;;;;;;;3.13;0.50;;;;;;;5.52;66.18;100773.16;4923891;28;96970;-50
2022/01/06 01:27:55;;;;;;;1.70;0.57;;;;;;;5.47;66.19;100786.63;4924734;28;97479;-51
2022/01/06 01:30:22;;;;;;;2.40;0.60;;;;;;;5.42;66.08;100796.16;4921216;28;98505;-51
2022/01/06 01:32:51;;;;;;;0.70;0.50;;;;;;;5.38;66.23;100809.19;4925630;28;97349;-49
2022/01/06 01:35:17;;;;;;;0.60;0.60;;;;;;;5.33;66.38;100816.00;4925432;28;97821;-51
2022/01/06 01:37:43;;;;;;;1.03;0.60;;;;;;;5.29;66.21;100815.38;4921481;28;98510;-50
2022/01/06 01:40:12;;;;;;;2.00;0.60;;;;;;;5.25;66.22;100819.47;4915179;28;96720;-51
2022/01/06 01:42:38;;;;;;;1.17;0.50;;;;;;;5.20;66.36;100841.88;4922442;28;97338;-51
2022/01/06 01:45:06;;;;;;;1.83;0.60;;;;;;;5.14;66.05;100843.69;4919840;28;97732;-51
2022/01/06 01:47:42;;;;;;;5.10;0.67;;;;;;;5.11;66.00;100844.59;4924720;28;96865;-51
2022/01/06 01:50:18;;;;;;;0.80;0.70;;;;;;;5.04;66.04;100850.31;4921680;28;97499;-51
2022/01/06 01:52:47;;;;;;;2.30;0.50;;;;;;;5.00;65.66;100852.44;4924399;28;97117;-51
2022/01/06 01:55:18;;;;;;;2.50;0.40;;;;;;;4.98;65.91;100855.59;4925319;28;97095;-51
2022/01/06 01:57:44;;;;;;;1.37;0.70;;;;;;;4.94;66.16;100867.84;4921460;28;96824;-51
2022/01/06 02:00:12;;;;;;;0.60;0.50;;;;;;;4.90;66.04;100875.38;4925116;28;97083;-51
2022/01/06 02:02:38;;;;;;;1.40;0.33;;;;;;;4.87;65.88;100876.31;4919557;28;97791;-51
2022/01/06 02:05:04;;;;;;;1.33;0.50;;;;;;;4.84;66.03;100877.19;4923284;28;97105;-51
2022/01/06 02:07:30;;;;;;;1.37;0.50;;;;;;;4.79;65.96;100883.97;4920960;28;97743;-51
2022/01/06 02:09:55;;;;;;;1.33;0.50;;;;;;;4.77;66.02;100882.91;4924198;28;97004;-51
2022/01/06 02:12:23;;;;;;;3.77;0.67;;;;;;;4.71;65.67;100882.72;4923396;28;97101;-50
2022/01/06 02:14:48;;;;;;;3.50;0.50;;;;;;;4.67;65.81;100893.00;4918855;28;97257;-50
2022/01/06 02:17:13;;;;;;;2.30;0.40;;;;;;;4.61;65.83;100899.47;4922984;28;119461;-50
2022/01/06 02:19:38;;;;;;;5.23;0.63;;;;;;;4.56;65.61;100907.00;4925215;28;121985;-50
2022/01/06 02:22:04;;;;;;;0.93;0.47;;;;;;;4.51;65.57;100915.00;4919524;28;117695;-49
2022/01/06 02:24:29;;;;;;;0.70;0.60;;;;;;;4.48;66.02;100915.88;4921057;28;115555;-49
2022/01/06 02:26:54;;;;;;;0.60;0.40;;;;;;;4.46;65.86;100910.88;4920231;28;109373;-51
2022/01/06 02:29:19;;;;;;;1.13;0.37;;;;;;;4.41;66.07;100916.88;4922210;28;127095;-51
2022/01/06 02:31:48;;;;;;;2.50;0.60;;;;;;;4.37;65.89;100923.66;4921775;28;97131;-51
2022/01/06 02:34:13;;;;;;;1.17;0.53;;;;;;;4.37;65.89;100920.94;4922741;28;97230;-51
2022/01/06 02:36:38;;;;;;;2.00;0.60;;;;;;;4.36;65.95;100914.75;4925430;28;113466;-48
2022/01/06 02:39:04;;;;;;;0.63;0.40;;;;;;;4.32;65.77;100914.13;4920639;28;100207;-51
2022/01/06 02:41:30;;;;;;;0.90;0.40;;;;;;;4.31;66.11;100918.03;4922646;28;96922;-50
2022/01/06 02:43:56;;;;;;;0.97;0.40;;;;;;;4.30;65.84;100932.09;4923623;28;96969;-50
2022/01/06 02:46:22;;;;;;;0.83;0.53;;;;;;;4.28;65.94;100932.50;4920480;28;97476;-50
2022/01/06 02:48:47;;;;;;;1.83;0.50;;;;;;;4.27;65.84;100927.53;4925865;28;97076;-48
2022/01/06 02:51:12;;;;;;;0.60;0.40;;;;;;;4.25;65.94;100933.41;4917824;28;96875;-51
2022/01/06 02:53:37;;;;;;;0.80;0.40;;;;;;;4.25;65.93;100936.13;4923541;28;97650;-50
2022/01/06 02:56:03;;;;;;;0.80;0.40;;;;;;;4.22;65.84;100934.28;4921023;28;118294;-51
2022/01/06 02:58:28;;;;;;;0.67;0.40;;;;;;;4.21;66.18;100934.75;4921676;28;97174;-50
2022/01/06 03:00:54;;;;;;;1.00;0.60;;;;;;;4.22;65.93;100941.69;4923776;28;116830;-51
2022/01/06 03:03:19;;;;;;;0.50;0.40;;;;;;;4.21;65.94;100948.34;4917897;28;118083;-51
2022/01/06 03:05:44;;;;;;;0.60;0.60;;;;;;;4.19;66.06;100951.53;4922721;28;97422;-49
2022/01/06 03:08:09;;;;;;;1.87;0.40;;;;;;;4.17;66.26;100945.72;4921440;28;116137;-51
2022/01/06 03:10:38;;;;;;;1.77;0.70;;;;;;;4.16;65.91;100960.56;4918312;28;98856;-50
2022/01/06 03:13:04;;;;;;;0.87;0.40;;;;;;;4.17;66.01;100962.06;4920592;28;97373;-51
2022/01/06 03:15:29;;;;;;;1.63;0.50;;;;;;;4.14;66.04;100957.53;4919819;28;97694;-51
2022/01/06 03:17:57;;;;;;;2.40;0.60;;;;;;;4.12;66.09;100964.59;4922244;28;98431;-50
2022/01/06 03:20:25;;;;;;;2.60;0.60;;;;;;;4.12;66.01;100973.53;4924074;28;97147;-48
2022/01/06 03:22:51;;;;;;;0.50;0.50;;;;;;;4.09;66.10;100979.09;4920664;28;96865;-51
2022/01/06 03:25:17;;;;;;;1.70;0.40;;;;;;;4.09;66.17;100979.84;4922069;28;97180;-51
2022/01/06 03:27:43;;;;;;;1.73;0.40;;;;;;;4.08;65.98;100972.91;4921281;28;97360;-50
2022/01/06 03:30:12;;;;;;;1.37;0.60;;;;;;;4.09;66.13;100988.00;4918688;28;96981;-51
2022/01/06 03:32:38;;;;;;;0.90;0.50;;;;;;;4.09;66.00;100984.53;4924042;28;96685;-51
2022/01/06 03:35:03;;;;;;;2.40;0.83;;;;;;;4.08;66.09;100988.47;4917465;28;97332;-51
2022/01/06 03:37:29;;;;;;;2.03;0.40;;;;;;;4.06;65.90;100993.59;4922593;28;97178;-51
2022/01/06 03:39:54;;;;;;;3.77;0.50;;;;;;;4.04;65.88;100993.28;4919184;28;116883;-49
2022/01/06 03:42:19;;;;;;;1.70;0.57;;;;;;;4.03;65.93;100999.91;4922406;28;103057;-51
2022/01/06 03:44:45;;;;;;;1.10;0.47;;;;;;;4.00;66.15;101006.25;4921249;28;125651;-51
2022/01/06 03:47:11;;;;;;;1.60;0.47;;;;;;;3.99;66.09;101013.63;4916280;28;97238;-54
2022/01/06 03:49:36;;;;;;;5.10;0.80;;;;;;;4.00;66.02;101014.41;4925293;28;97740;-51
2022/01/06 03:52:02;;;;;;;0.70;0.50;;;;;;;3.98;65.95;101023.00;4918971;28;96902;-50
2022/01/06 03:54:28;;;;;;;0.60;0.50;;;;;;;3.98;66.05;101024.94;4920850;28;97858;-51
2022/01/06 03:56:53;;;;;;;4.50;0.60;;;;;;;3.97;66.06;101016.03;4919625;28;97355;-51
2022/01/06 03:59:19;;;;;;;1.10;0.50;;;;;;;3.97;65.96;101023.44;4915939;28;97329;-51
2022/01/06 04:01:45;;;;;;;1.50;0.80;;;;;;;3.95;66.00;101021.16;4923312;28;96950;-50
2022/01/06 04:04:13;;;;;;;1.80;0.70;;;;;;;3.93;65.80;101023.56;4920013;28;97058;-51
2022/01/06 04:06:39;;;;;;;1.67;0.50;;;;;;;3.90;65.85;101029.88;4919518;28;97144;-51
2022/01/06 04:09:04;;;;;;;3.73;0.60;;;;;;;3.93;66.13;101044.56;4921969;28;97348;-51
2022/01/06 04:11:30;;;;;;;1.23;0.67;;;;;;;3.92;66.05;101040.31;4920784;28;96922;-51
2022/01/06 04:13:55;;;;;;;2.67;1.13;;;;;;;3.91;66.13;101050.41;4918704;28;116761;-50
2022/01/06 04:16:20;;;;;;;2.13;0.50;;;;;;;3.92;66.05;101043.03;4920644;28;96705;-50
2022/01/06 04:18:46;;;;;;;3.13;0.83;;;;;;;3.90;65.99;101045.44;4921359;28;97256;-51
2022/01/06 04:21:12;;;;;;;1.70;0.40;;;;;;;3.88;66.05;101056.75;4919084;28;96861;-50
2022/01/06 04:23:37;;;;;;;1.10;0.50;;;;;;;3.86;66.02;101061.88;4915964;28;97772;-51
2022/01/06 04:26:02;;;;;;;1.60;0.47;;;;;;;3.84;66.32;101069.72;4922704;28;96920;-49
2022/01/06 04:28:28;;;;;;;1.80;0.67;;;;;;;3.82;65.99;101077.56;4920878;28;96916;-50
2022/01/06 04:30:53;;;;;;;2.37;0.60;;;;;;;3.79;65.96;101081.91;4922672;28;96734;-51
2022/01/06 04:33:18;;;;;;;1.23;0.63;;;;;;;3.78;66.08;101088.53;4919746;28;97179;-51
2022/01/06 04:35:44;;;;;;;1.13;0.43;;;;;;;3.77;66.05;101086.25;4919004;28;97633;-51
2022/01/06 04:38:09;;;;;;;0.87;0.70;;;;;;;3.78;66.10;101093.97;4923179;28;96903;-51
2022/01/06 04:40:35;;;;;;;6.23;0.50;;;;;;;3.77;66.07;101089.75;4919861;28;97218;-48
2022/01/06 04:43:00;;;;;;;2.63;0.50;;;;;;;3.78;66.09;101102.13;4923415;28;113254;-50
2022/01/06 04:45:26;;;;;;;1.10;0.50;;;;;;;3.79;65.88;101105.63;4925799;28;98326;-51
2022/01/06 04:47:51;;;;;;;2.93;0.67;;;;;;;3.77;65.88;101108.78;4921558;28;96923;-49
2022/01/06 04:50:16;;;;;;;3.07;1.00;;;;;;;3.77;66.15;101113.47;4923962;28;116531;-49
2022/01/06 04:52:41;;;;;;;2.00;0.50;;;;;;;3.75;65.95;101107.69;4925079;28;97372;-50
2022/01/06 04:55:07;;;;;;;1.40;0.70;;;;;;;3.74;66.13;101103.44;4921354;28;102776;-51
2022/01/06 04:57:33;;;;;;;2.40;0.60;;;;;;;3.73;66.11;101112.81;4924217;28;96951;-51
2022/01/06 04:59:59;;;;;;;1.27;0.80;;;;;;;3.71;65.98;101121.38;4923176;28;97196;-51
2022/01/06 05:02:24;;;;;;;2.63;0.87;;;;;;;3.71;66.27;101126.09;4924526;28;97363;-49
2022/01/06 05:04:49;;;;;;;1.63;0.60;;;;;;;3.70;66.14;101130.00;4921397;28;127101;-50
2022/01/06 05:07:14;;;;;;;0.60;0.50;;;;;;;3.70;66.23;101132.72;4920935;28;116871;-50
2022/01/06 05:09:40;;;;;;;2.00;0.57;;;;;;;3.68;66.07;101133.16;4925370;28;96830;-51
2022/01/06 05:12:05;;;;;;;5.10;0.60;;;;;;;3.65;66.15;101144.88;4918052;28;126628;-51
2022/01/06 05:14:31;;;;;;;0.60;0.60;;;;;;;3.65;66.29;101141.41;4927673;28;97739;-51
2022/01/06 05:16:56;;;;;;;2.50;0.80;;;;;;;3.66;66.20;101146.44;4922317;28;112831;-50
2022/01/06 05:19:23;;;;;;;1.00;0.53;;;;;;;3.69;66.21;101142.09;4926886;28;116277;-50
2022/01/06 05:21:49;;;;;;;4.60;0.70;;;;;;;3.72;66.18;101149.38;4925930;28;97769;-49
2022/01/06 05:24:16;;;;;;;3.27;0.83;;;;;;;3.72;66.12;101143.91;4920781;28;97299;-53
2022/01/06 05:26:42;;;;;;;0.67;0.50;;;;;;;3.73;66.03;101156.34;4925264;28;98171;-50
2022/01/06 05:29:09;;;;;;;3.20;1.00;;;;;;;3.73;66.07;101157.09;4921340;28;97355;-51
2022/01/06 05:31:35;;;;;;;2.00;0.80;;;;;;;3.71;66.13;101148.59;4923160;28;97072;-51
2022/01/06 05:34:00;;;;;;;1.57;1.00;;;;;;;3.75;66.12;101145.78;4924030;28;98966;-50
2022/01/06 05:36:26;;;;;;;4.53;1.03;;;;;;;3.73;66.25;101151.63;4921912;28;97269;-51
2022/01/06 05:38:51;;;;;;;4.50;0.77;;;;;;;3.73;66.18;101159.81;4922037;28;112556;-51
2022/01/06 05:41:16;;;;;;;0.90;0.60;;;;;;;3.72;66.26;101165.69;4921880;28;128606;-51
2022/01/06 05:43:41;;;;;;;0.80;0.63;;;;;;;3.74;65.97;101168.75;4919374;28;127006;-51
2022/01/06 05:46:07;;;;;;;1.97;0.97;;;;;;;3.75;66.16;101175.72;4921731;28;100470;-50
2022/01/06 05:48:32;;;;;;;1.20;0.80;;;;;;;3.77;66.41;101178.78;4921165;28;97037;-50
2022/01/06 05:50:57;;;;;;;1.27;0.70;;;;;;;3.77;66.04;101181.50;4925149;28;99461;-50
2022/01/06 05:53:23;;;;;;;1.10;1.00;;;;;;;3.79;65.98;101184.53;4920510;28;98889;-49
2022/01/06 05:55:48;;;;;;;1.70;1.13;;;;;;;3.77;66.10;101181.50;4922117;28;97361;-51
2022/01/06 05:58:14;;;;;;;1.83;1.00;;;;;;;3.77;65.84;101193.16;4927364;28;96974;-50
2022/01/06 06:00:39;;;;;;;2.77;1.13;;;;;;;3.77;65.96;101200.53;4920735;28;97103;-50
2022/01/06 06:03:04;;;;;;;1.33;0.93;;;;;;;3.77;65.95;101204.03;4922696;28;101584;-51
2022/01/06 06:05:30;;;;;;;3.93;2.47;;;;;;;3.77;65.76;101212.19;4922831;28;104485;-51
2022/01/06 06:07:55;;;;;;;2.97;0.60;;;;;;;3.78;66.08;101207.50;4920310;28;96991;-50
2022/01/06 06:10:20;;;;;;;2.03;0.73;;;;;;;3.77;66.01;101206.75;4936447;22;97183;-51
2022/01/06 06:12:48;;;;;;;0.60;0.60;;;;;;;3.76;66.07;101207.16;4927591;28;96830;-50
2022/01/06 06:15:13;;;;;;;1.90;0.83;;;;;;;3.75;66.08;101213.81;4927146;28;96727;-49
2022/01/06 06:17:39;;;;;;;1.47;1.23;;;;;;;3.73;66.02;101216.94;4931883;28;98471;-51
2022/01/06 06:20:05;;;;;;;2.07;0.80;;;;;;;3.72;66.00;101215.44;4924174;28;102239;-50
2022/01/06 06:22:30;;;;;;;1.33;0.80;;;;;;;3.69;65.91;101216.28;4926212;28;99521;-49
2022/01/06 06:24:55;;;;;;;2.87;0.83;;;;;;;3.69;66.01;101231.88;4921651;28;118217;-53
2022/01/06 06:27:20;;;;;;;1.63;1.17;;;;;;;3.65;66.04;101229.22;4924470;28;96858;-50
2022/01/06 06:29:46;;;;;;;1.63;0.93;;;;;;;3.61;65.93;101227.78;4923226;28;122664;-51
2022/01/06 06:32:11;;;;;;;2.60;1.07;;;;;;;3.56;65.87;101228.34;4920593;28;125939;-51
2022/01/06 06:34:36;;;;;;;2.10;0.87;;;;;;;3.53;65.96;101223.75;4925771;28;97264;-49
2022/01/06 06:37:02;;;;;;;2.37;0.97;;;;;;;3.54;66.01;101233.41;4919630;28;117100;-52
2022/01/06 06:39:28;;;;;;;8.70;1.60;;;;;;;3.52;66.04;101230.38;4925118;28;97078;-49
2022/01/06 06:41:53;;;;;;;1.43;0.83;;;;;;;3.52;66.03;101236.56;4922665;28;98182;-50
2022/01/06 06:44:18;;;;;;;1.47;0.73;;;;;;;3.50;65.98;101235.47;4921680;28;117138;-49
2022/01/06 06:46:44;;;;;;;1.57;0.77;;;;;;;3.53;65.88;101229.19;4922994;28;96925;-49
2022/01/06 06:49:09;;;;;;;4.20;0.73;;;;;;;3.50;65.86;101230.81;4921711;28;98315;-51
2022/01/06 06:51:35;;;;;;;2.03;0.87;;;;;;;3.47;65.88;101237.09;4922261;28;124737;-50
2022/01/06 06:54:01;;;;;;;1.20;1.10;;;;;;;3.48;65.88;101243.28;4922070;28;97244;-49
2022/01/06 06:56:26;;;;;;;4.33;1.00;;;;;;;3.45;66.14;101244.91;4922142;28;97771;-53
2022/01/06 06:58:51;;;;;;;1.73;0.63;;;;;;;3.43;65.71;101246.56;4923152;28;97112;-55
2022/01/06 07:01:16;;;;;;;1.00;0.90;;;;;;;3.41;65.79;101246.19;4920019;28;98019;-49
2022/01/06 07:03:42;;;;;;;0.73;0.50;;;;;;;3.39;65.79;101252.06;4921739;28;112841;-54
2022/01/06 07:06:07;;;;;;;0.73;0.70;;;;;;;3.36;65.75;101255.66;4922516;28;96937;-49
2022/01/06 07:08:32;;;;;;;0.73;0.70;;;;;;;3.33;65.88;101255.75;4921244;28;126757;-50
2022/01/06 07:10:58;;;;;;;7.27;1.20;;;;;;;3.32;65.87;101265.84;4920627;28;121179;-50
2022/01/06 07:13:23;;;;;;;0.80;0.80;;;;;;;3.28;65.76;101275.28;4921122;28;117692;-49
2022/01/06 07:15:48;;;;;;;0.60;0.60;;;;;;;3.24;65.94;101271.91;4923460;28;97053;-49
2022/01/06 07:18:14;;;;;;;2.07;0.70;;;;;;;3.19;65.80;101267.72;4922693;28;103916;-49
2022/01/06 07:20:39;;;;;;;2.87;0.80;;;;;;;3.20;65.72;101268.50;4920930;28;97186;-53
2022/01/06 07:23:05;;;;;;;3.23;0.80;;;;;;;3.19;66.23;101270.44;4922048;28;115778;-55
2022/01/06 07:25:30;;;;;;;3.00;0.97;;;;;;;3.19;65.87;101272.44;4922480;28;116201;-49
2022/01/06 07:27:56;;;;;;;1.13;0.80;;;;;;;3.13;65.78;101282.25;4922277;28;109362;-54
2022/01/06 07:30:21;;;;;;;2.80;1.03;;;;;;;3.07;65.89;101289.41;4923739;28;97906;-50
2022/01/06 07:32:49;;;;;;;0.93;0.90;;;;;;;3.02;66.05;101304.25;4922314;28;97248;-49
2022/01/06 07:35:16;;;;;;;0.97;0.90;;;;;;;3.01;66.02;101305.47;4923441;28;96855;-49
2022/01/06 07:37:41;;;;;;;3.53;1.00;;;;;;;2.98;65.89;101309.78;4920635;28;98658;-49
2022/01/06 07:40:08;;;;;;;1.20;0.93;;;;;;;3.00;65.92;101306.66;4924343;28;97275;-50
2022/01/06 07:42:34;;;;;;;1.50;1.03;;;;;;;3.02;66.16;101310.47;4921849;28;97783;-51
2022/01/06 07:45:00;;;;;;;1.00;0.90;;;;;;;3.02;65.77;101326.00;4921704;28;96990;-49
2022/01/06 07:47:26;;;;;;;1.10;0.73;;;;;;;3.06;66.00;101328.66;4922295;28;99835;-53
2022/01/06 07:49:51;;;;;;;4.63;0.90;;;;;;;3.05;65.97;101330.59;4921031;28;97239;-49
2022/01/06 07:52:17;;;;;;;3.03;0.80;;;;;;;3.08;65.93;101327.03;4923840;28;96977;-51
2022/01/06 07:54:43;;;;;;;1.40;1.00;;;;;;;3.12;66.14;101340.56;4924015;28;97651;-49
2022/01/06 07:57:08;;;;;;;2.63;1.07;;;;;;;3.13;65.94;101340.13;4921348;28;96937;-49
2022/01/06 07:59:34;;;;;;;3.23;1.20;;;;;;;3.14;65.88;101333.50;4922997;28;98229;-52
2022/01/06 08:01:59;;;;;;;1.90;1.07;;;;;;;3.15;66.12;101345.13;4922433;28;98109;-53
2022/01/06 08:04:24;;;;;;;7.20;1.23;;;;;;;3.19;66.12;101343.13;4921412;28;118313;-49
2022/01/06 08:06:49;;;;;;;1.67;1.13;;;;;;;3.21;66.06;101343.44;4923496;28;126608;-49
2022/01/06 08:09:15;;;;;;;2.47;1.17;;;;;;;3.20;66.03;101352.78;4917872;28;128266;-50
2022/01/06 08:11:41;;;;;;;1.37;1.10;;;;;;;3.21;66.27;101349.63;4923170;28;97303;-51
2022/01/06 08:14:06;;;;;;;4.50;1.40;;;;;;;3.23;66.02;101355.44;4923100;28;97170;-49
2022/01/06 08:16:31;;;;;;;1.20;1.10;;;;;;;3.23;65.99;101349.22;4921625;28;96844;-49
2022/01/06 08:18:57;;;;;;;4.70;1.30;;;;;;;3.22;65.94;101353.13;4926247;28;115407;-51
2022/01/06 08:21:22;;;;;;;3.87;1.27;;;;;;;3.22;65.93;101355.84;4920373;28;114448;-51
2022/01/06 08:23:47;;;;;;;1.43;1.27;;;;;;;3.22;66.02;101356.59;4925709;28;117470;-50
2022/01/06 08:26:12;;;;;;;1.63;1.10;;;;;;;3.21;66.06;101357.78;4925987;28;120367;-49
2022/01/06 08:28:38;;;;;;;3.03;1.10;;;;;;;3.24;66.21;101359.66;4924905;28;120269;-51
2022/01/06 08:31:03;;;;;;;1.97;1.40;;;;;;;3.25;65.98;101363.94;4925132;28;96865;-50
2022/01/06 08:33:28;;;;;;;3.00;1.30;;;;;;;3.29;66.09;101361.88;4923417;28;97352;-51
2022/01/06 08:35:54;;;;;;;6.10;1.30;;;;;;;3.32;66.31;101358.28;4926513;28;125478;-54
2022/01/06 08:38:19;;;;;;;5.60;1.93;;;;;;;3.36;66.11;101366.38;4923416;28;97125;-50
2022/01/06 08:40:44;;;;;;;2.30;1.50;;;;;;;3.37;66.18;101370.63;4923919;28;96886;-50
2022/01/06 08:43:10;;;;;;;3.27;1.57;;;;;;;3.39;66.15;101373.69;4926474;28;97416;-50
2022/01/06 08:45:36;;;;;;;5.17;1.80;;;;;;;3.38;66.25;101375.66;4922991;28;119693;-52
2022/01/06 08:48:01;;;;;;;1.90;1.80;;;;;;;3.40;66.00;101377.94;4927037;28;97124;-49
2022/01/06 08:50:27;;;;;;;3.77;1.90;;;;;;;3.39;66.20;101387.28;4925854;28;97093;-49
2022/01/06 08:52:53;;;;;;;4.40;1.60;;;;;;;3.39;66.20;101400.88;4926740;28;96896;-50
2022/01/06 08:55:18;;;;;;;1.63;1.53;;;;;;;3.42;66.37;101386.44;4925803;28;97438;-50
2022/01/06 08:57:44;;;;;;;3.10;1.70;;;;;;;3.42;66.15;101383.72;4921412;28;99304;-51
2022/01/06 09:00:11;;;;;;;3.23;2.07;;;;;;;3.47;66.35;101391.38;4921945;28;97159;-50
2022/01/06 09:02:36;;;;;;;5.70;1.53;;;;;;;3.47;66.27;101397.56;4924061;28;96821;-49
2022/01/06 09:05:05;;;;;;;3.77;1.47;;;;;;;3.52;66.28;101407.16;4921961;28;97895;-52
2022/01/06 09:07:34;;;;;;;1.97;1.50;;;;;;;3.55;66.20;101411.78;4927501;28;96943;-49
2022/01/06 09:09:59;;;;;;;2.70;1.00;;;;;;;3.59;66.54;101409.72;4922330;28;97125;-52
2022/01/06 09:12:24;;;;;;;2.70;1.83;;;;;;;3.64;66.69;101420.88;4927331;28;97425;-52
2022/01/06 09:14:50;;;;;;;3.80;1.27;;;;;;;3.68;66.42;101421.56;4923385;28;122636;-49
2022/01/06 09:17:15;;;;;;;1.40;1.30;;;;;;;3.72;66.62;101419.50;4921672;28;111878;-50
2022/01/06 09:19:41;;;;;;;3.50;1.37;;;;;;;3.76;66.42;101422.91;4924730;28;97010;-50
2022/01/06 09:22:06;;;;;;;5.17;1.40;;;;;;;3.82;66.38;101425.88;4921335;28;97028;-54
2022/01/06 09:24:32;;;;;;;2.03;1.13;;;;;;;3.86;66.31;101428.50;4926574;28;100552;-49
2022/01/06 09:26:57;;;;;;;2.20;1.80;;;;;;;3.88;66.26;101423.41;4924500;28;97178;-51
2022/01/06 09:29:23;;;;;;;2.10;1.40;;;;;;;3.91;66.41;101425.28;4921276;28;96913;-49
2022/01/06 09:31:48;;;;;;;4.60;1.90;;;;;;;3.92;66.39;101422.13;4923522;28;118028;-51
2022/01/06 09:34:13;;;;;;;2.20;1.50;;;;;;;3.94;66.61;101425.19;4923168;28;97449;-49
2022/01/06 09:36:40;;;;;;;1.77;1.63;;;;;;;3.97;66.27;101431.72;4924667;28;105017;-50
2022/01/06 09:39:07;;;;;;;4.90;2.27;;;;;;;4.01;66.61;101433.16;4924617;28;97103;-50
2022/01/06 09:41:33;;;;;;;4.20;2.50;;;;;;;4.05;66.12;101433.84;4921629;28;97078;-49
2022/01/06 09:44:00;;;;;;;6.77;2.97;;;;;;;4.05;66.48;101443.97;4924281;28;96838;-50
2022/01/06 09:46:27;;;;;;;7.10;3.07;;;;;;;4.07;66.79;101442.34;4917691;28;97277;-52
2022/01/06 09:48:57;;;;;;;4.80;3.63;;;;;;;4.11;66.70;101453.13;4922291;28;97473;-53
2022/01/06 09:51:22;;;;;;;4.87;3.60;;;;;;;4.12;66.61;101443.78;4923725;28;97018;-50
2022/01/06 09:53:48;;;;;;;10.07;3.00;;;;;;;4.15;66.61;101454.56;4923915;28;97422;-52
2022/01/06 09:56:14;;;;;;;8.07;3.67;;;;;;;4.15;66.76;101454.56;4923025;28;97711;-50
2022/01/06 09:58:39;;;;;;;10.03;4.07;;;;;;;4.18;66.87;101448.28;4922716;28;96875;-51
2022/01/06 10:01:05;;;;;;;5.27;3.80;;;;;;;4.21;66.81;101452.13;4924238;28;97138;-50
2022/01/06 10:03:44;;;;;;;6.70;4.13;;;;;;;4.25;66.51;101450.84;4924529;28;98622;-52
2022/01/06 10:06:16;;;;;;;8.80;3.60;;;;;;;4.23;66.76;101447.78;4922406;28;100438;-50
2022/01/06 10:09:04;;;;;;;6.57;3.87;;;;;;;4.28;66.66;101455.41;4925261;28;98872;-52
2022/01/06 10:11:34;;;;;;;8.10;4.40;;;;;;;4.29;66.93;101459.66;4922453;28;97482;-49
2022/01/06 10:14:10;;;;;;;8.17;4.07;;;;;;;4.30;66.68;101455.72;4922316;28;98489;-50
2022/01/06 10:16:40;;;;;;;7.07;3.43;;;;;;;4.33;66.69;101454.88;4923152;28;97369;-50
2022/01/06 10:19:10;;;;;;;4.67;3.03;;;;;;;4.35;66.88;101455.22;4924727;28;97187;-50
2022/01/06 10:21:42;;;;;;;6.00;3.37;;;;;;;4.40;66.91;101453.94;4919778;28;96959;-49
2022/01/06 10:24:19;;;;;;;6.37;2.87;;;;;;;4.43;67.00;101453.09;4921118;28;97119;-50
2022/01/06 10:27:01;;;;;;;4.30;2.30;;;;;;;4.48;67.05;101461.47;4922092;28;97786;-49
2022/01/06 10:29:31;;;;;;;4.30;2.20;;;;;;;4.51;66.71;101460.63;4922855;28;97116;-51
2022/01/06 10:32:09;;;;;;;9.13;3.30;;;;;;;4.55;66.84;101466.75;4923951;28;97336;-51
2022/01/06 10:34:37;;;;;;;4.23;2.73;;;;;;;4.58;66.90;101465.13;4921672;28;100887;-50
2022/01/06 10:37:05;;;;;;;5.17;2.50;;;;;;;4.60;66.93;101465.47;4923827;28;97214;-52
2022/01/06 10:39:41;;;;;;;6.50;2.83;;;;;;;4.62;67.05;101471.25;4921855;28;96984;-49
2022/01/06 10:42:07;;;;;;;6.07;2.83;;;;;;;4.65;66.81;101472.34;4921538;28;97425;-54
2022/01/06 10:44:32;;;;;;;4.13;2.10;;;;;;;4.69;67.13;101475.72;4924977;28;100972;-50
2022/01/06 10:46:58;;;;;;;3.80;1.67;;;;;;;4.72;66.97;101481.06;4919041;28;122126;-49
2022/01/06 10:49:23;;;;;;;2.00;1.30;;;;;;;4.75;67.08;101479.44;4923705;28;97254;-51
2022/01/06 10:51:51;;;;;;;3.07;1.30;;;;;;;4.82;66.92;101476.53;4924551;28;96859;-50
2022/01/06 10:54:23;;;;;;;2.13;1.60;;;;;;;4.85;67.09;101484.59;4921665;28;97357;-51
2022/01/06 10:57:02;;;;;;;11.60;2.33;;;;;;;4.90;66.94;101481.34;4923169;28;98303;-49
2022/01/06 10:59:32;;;;;;;4.97;1.40;;;;;;;4.94;66.99;101483.97;4921140;28;97123;-51
2022/01/06 11:01:57;;;;;;;4.10;1.93;;;;;;;4.97;67.01;101486.59;4920208;28;97126;-53
2022/01/06 11:04:23;;;;;;;5.03;1.90;;;;;;;5.01;67.01;101487.25;4921464;28;98008;-49
2022/01/06 11:06:50;;;;;;;5.67;1.73;;;;;;;5.04;67.05;101486.41;4921282;28;97155;-50
2022/01/06 11:09:16;;;;;;;6.70;2.17;;;;;;;5.06;67.02;101484.00;4922485;28;97059;-49
2022/01/06 11:12:26;;;;;;;3.90;2.63;;;;;;;5.10;67.04;101486.63;4923069;28;96858;-49
2022/01/06 11:14:31;;;;;;;7.53;2.10;;;;;;;5.09;67.20;101483.13;4919811;28;102833;-56
2022/01/06 11:16:56;;;;;;;7.90;2.00;;;;;;;5.12;66.77;101485.00;4924262;28;97703;-54
2022/01/06 11:19:27;;;;;;;8.30;2.17;;;;;;;5.18;66.81;101482.47;4920305;28;97444;-49
2022/01/06 11:21:59;;;;;;;6.93;2.50;;;;;;;5.20;67.08;101491.75;4921604;28;97841;-53
2022/01/06 11:24:27;;;;;;;4.00;2.70;;;;;;;5.21;67.12;101492.53;4923391;28;98007;-52
2022/01/06 11:27:00;;;;;;;7.03;2.13;;;;;;;5.27;66.84;101488.06;4919754;28;96877;-49
2022/01/06 11:29:28;;;;;;;11.30;2.87;;;;;;;5.29;66.96;101491.13;4921480;28;96805;-50
2022/01/06 11:31:54;;;;;;;7.07;2.83;;;;;;;5.34;67.43;101487.84;4922004;28;96958;-52
2022/01/06 11:34:20;;;;;;;4.60;2.00;;;;;;;5.39;66.94;101483.81;4919854;28;97334;-52
2022/01/06 11:36:49;;;;;;;3.93;2.07;;;;;;;5.43;66.86;101482.53;4922755;28;97607;-51